Time;durP1;ratioP1;P1;durP2;ratioP2;P2;SDS_P1;SDS_P2;PMS_P1;PMS_P2;Temp;Humidity;BMP_temperature;BMP_pressure;BME280_temperature;BME280_humidity;BME280_pressure;Samples;Min_cycle;Max_cycle;Signal;HPM_P1;HPM_P2
2024/03/17 00:01:01;;;;;;;5.30;1.53;;;6.20;99.90;;;;;;6132461;23;20403;-59
2024/03/17 00:03:28;;;;;;;7.70;2.33;;;6.20;99.90;;;;;;6132970;23;20469;-59
2024/03/17 00:05:58;;;;;;;8.63;1.60;;;6.10;99.90;;;;;;6133223;23;20396;-55
2024/03/17 00:08:26;;;;;;;2.90;1.20;;;6.00;99.90;;;;;;6133716;23;20410;-56
2024/03/17 00:10:54;;;;;;;6.70;1.87;;;6.10;99.90;;;;;;6132801;23;20766;-58
2024/03/17 00:13:21;;;;;;;11.17;2.50;;;6.10;99.90;;;;;;6131225;23;20960;-57
2024/03/17 00:15:48;;;;;;;8.80;1.87;;;6.10;99.90;;;;;;6130607;23;20418;-58
2024/03/17 00:18:14;;;;;;;14.57;4.33;;;6.20;99.90;;;;;;6130398;23;20430;-60
2024/03/17 00:20:41;;;;;;;4.70;1.57;;;6.10;99.90;;;;;;6131381;23;20407;-59
2024/03/17 00:23:11;;;;;;;10.97;2.30;;;6.10;99.90;;;;;;6130412;23;20526;-57
2024/03/17 00:25:39;;;;;;;11.30;1.67;;;6.10;99.90;;;;;;6131280;23;20411;-58
2024/03/17 00:28:05;;;;;;;8.33;2.20;;;6.20;99.90;;;;;;6131338;23;20467;-58
2024/03/17 00:30:36;;;;;;;5.63;1.67;;;6.10;99.90;;;;;;6131305;23;20410;-59
2024/03/17 00:33:03;;;;;;;6.87;1.53;;;6.00;99.90;;;;;;6130928;23;20427;-58
2024/03/17 00:35:30;;;;;;;9.00;2.70;;;6.00;99.90;;;;;;6130864;23;20678;-55
2024/03/17 00:37:56;;;;;;;9.10;3.10;;;6.00;99.90;;;;;;6130977;23;20407;-59
2024/03/17 00:40:24;;;;;;;22.83;3.77;;;5.90;99.90;;;;;;6130971;23;20399;-59
2024/03/17 00:42:51;;;;;;;12.47;2.63;;;5.90;99.90;;;;;;6130642;23;20906;-59
2024/03/17 00:45:17;;;;;;;15.33;1.97;;;5.80;99.90;;;;;;6131621;23;20736;-60
2024/03/17 00:47:44;;;;;;;1.93;1.10;;;5.80;99.90;;;;;;6131448;23;20438;-59
2024/03/17 00:50:11;;;;;;;7.17;1.80;;;5.80;99.90;;;;;;6131267;23;20474;-59
2024/03/17 00:52:37;;;;;;;3.77;1.13;;;5.80;99.90;;;;;;6130800;23;20438;-59
2024/03/17 00:55:04;;;;;;;10.07;2.90;;;5.80;99.90;;;;;;6131997;23;20449;-56
2024/03/17 00:57:32;;;;;;;4.90;1.67;;;5.80;99.90;;;;;;6131004;23;20521;-59
2024/03/17 00:59:59;;;;;;;6.90;2.97;;;5.80;99.90;;;;;;6130416;23;20414;-59
2024/03/17 01:02:25;;;;;;;10.73;3.37;;;5.70;99.90;;;;;;6130282;23;20430;-59
2024/03/17 01:04:52;;;;;;;9.83;1.93;;;5.80;99.90;;;;;;6131521;23;20434;-56
2024/03/17 01:07:18;;;;;;;11.63;1.43;;;5.70;99.90;;;;;;6132424;23;20407;-57
2024/03/17 01:09:47;;;;;;;5.47;1.70;;;5.70;99.90;;;;;;6132195;23;20731;-58
2024/03/17 01:12:13;;;;;;;22.17;2.60;;;5.70;99.90;;;;;;6132191;23;20206;-58
2024/03/17 01:14:41;;;;;;;5.30;1.07;;;5.70;99.90;;;;;;6131318;23;20403;-58
2024/03/17 01:17:08;;;;;;;9.63;2.13;;;5.70;99.90;;;;;;6131511;23;20406;-57
2024/03/17 01:19:36;;;;;;;2.33;1.30;;;5.70;99.90;;;;;;6131027;23;20454;-58
2024/03/17 01:22:02;;;;;;;11.90;3.77;;;5.70;99.90;;;;;;6131809;23;20789;-58
2024/03/17 01:24:31;;;;;;;7.30;1.83;;;5.70;99.90;;;;;;6132697;23;20443;-57
2024/03/17 01:26:57;;;;;;;8.10;1.90;;;5.70;99.90;;;;;;6133275;23;20407;-59
2024/03/17 01:29:24;;;;;;;4.33;1.10;;;5.60;99.90;;;;;;6132230;23;20413;-59
2024/03/17 01:31:51;;;;;;;6.77;1.23;;;5.70;99.90;;;;;;6133025;23;20865;-56
2024/03/17 01:34:19;;;;;;;7.37;1.40;;;5.70;99.90;;;;;;6132697;23;20413;-55
2024/03/17 01:36:45;;;;;;;16.77;2.00;;;5.70;99.90;;;;;;6133066;23;20438;-60
2024/03/17 01:39:12;;;;;;;13.73;2.70;;;5.70;99.90;;;;;;6132668;23;20418;-59
2024/03/17 01:41:39;;;;;;;17.43;1.47;;;5.70;99.90;;;;;;6133543;23;20403;-58
2024/03/17 01:44:06;;;;;;;5.63;2.23;;;5.70;99.90;;;;;;6132962;23;20443;-59
2024/03/17 01:46:33;;;;;;;9.03;2.73;;;5.70;99.90;;;;;;6134779;23;20457;-59
2024/03/17 01:49:04;;;;;;;9.17;2.53;;;5.70;99.90;;;;;;6134865;23;20403;-57
2024/03/17 01:51:30;;;;;;;2.80;1.20;;;5.70;99.90;;;;;;6134073;23;20446;-59
2024/03/17 01:53:57;;;;;;;8.43;1.47;;;5.50;99.90;;;;;;6132543;23;20407;-58
2024/03/17 01:56:23;;;;;;;5.33;2.70;;;5.60;99.90;;;;;;6133019;23;20411;-59
2024/03/17 01:58:51;;;;;;;9.97;2.00;;;5.50;99.90;;;;;;6132583;23;20407;-58
2024/03/17 02:01:17;;;;;;;14.97;1.90;;;5.50;99.90;;;;;;6132920;23;20413;-56
2024/03/17 02:03:44;;;;;;;7.97;1.87;;;5.50;99.90;;;;;;6131935;23;20502;-59
2024/03/17 02:06:11;;;;;;;5.70;1.60;;;5.50;99.90;;;;;;6132269;23;20952;-59
2024/03/17 02:08:50;;;;;;;6.47;2.07;;;5.30;99.90;;;;;;6132656;23;20449;-59
2024/03/17 02:11:25;;;;;;;8.80;2.03;;;5.30;99.90;;;;;;6132140;23;20453;-58
2024/03/17 02:13:53;;;;;;;7.97;1.70;;;5.20;99.90;;;;;;6131596;23;20703;-59
2024/03/17 02:16:19;;;;;;;5.07;2.47;;;5.20;99.90;;;;;;6132188;23;20395;-57
2024/03/17 02:18:47;;;;;;;16.10;2.73;;;5.10;99.90;;;;;;6132157;23;20407;-60
2024/03/17 02:21:14;;;;;;;8.80;1.90;;;5.10;99.90;;;;;;6131740;23;20407;-59
2024/03/17 02:23:45;;;;;;;10.23;2.53;;;5.00;99.90;;;;;;6132102;23;20515;-60
2024/03/17 02:26:11;;;;;;;7.60;2.43;;;4.90;99.90;;;;;;6132578;23;20435;-58
2024/03/17 02:28:42;;;;;;;10.10;2.07;;;4.90;99.90;;;;;;6132070;23;20784;-59
2024/03/17 02:31:09;;;;;;;6.80;2.47;;;4.90;99.90;;;;;;6132336;23;20438;-57
2024/03/17 02:33:36;;;;;;;5.03;1.60;;;4.90;99.90;;;;;;6132879;23;20423;-59
2024/03/17 02:36:07;;;;;;;16.77;3.40;;;5.00;99.90;;;;;;6134437;23;20913;-59
2024/03/17 02:41:20;;;;;;;4.47;1.43;;;5.00;99.90;;;;;;6131875;23;20909;-58
2024/03/17 02:43:48;;;;;;;3.13;1.50;;;5.00;99.90;;;;;;6131955;23;20443;-56
2024/03/17 02:46:15;;;;;;;7.50;1.83;;;5.00;99.90;;;;;;6131464;23;20407;-56
2024/03/17 02:48:44;;;;;;;13.60;2.10;;;5.00;99.90;;;;;;6131286;23;20485;-59
2024/03/17 02:51:14;;;;;;;10.20;1.50;;;4.90;99.90;;;;;;6131127;23;20461;-60
2024/03/17 02:53:41;;;;;;;3.37;1.50;;;4.90;99.90;;;;;;6132248;23;20423;-58
2024/03/17 02:56:08;;;;;;;21.67;2.67;;;4.90;99.90;;;;;;6131877;23;20457;-59
2024/03/17 02:58:37;;;;;;;7.47;1.33;;;5.00;99.90;;;;;;6132394;23;20406;-59
2024/03/17 03:01:05;;;;;;;5.97;2.00;;;4.70;99.90;;;;;;6132714;23;20440;-60
2024/03/17 03:03:32;;;;;;;6.47;1.50;;;4.80;99.90;;;;;;6132594;23;20517;-58
2024/03/17 03:06:00;;;;;;;6.43;2.10;;;4.80;99.90;;;;;;6131860;23;20396;-57
2024/03/17 03:08:28;;;;;;;9.20;2.50;;;4.80;99.90;;;;;;6131419;23;20408;-57
2024/03/17 03:10:54;;;;;;;12.20;1.97;;;4.70;99.90;;;;;;6131881;23;20735;-56
2024/03/17 03:13:21;;;;;;;5.20;1.60;;;4.80;99.90;;;;;;6131210;23;20534;-58
2024/03/17 03:15:50;;;;;;;6.30;1.87;;;4.70;99.90;;;;;;6133149;23;20407;-60
2024/03/17 03:18:18;;;;;;;4.30;1.40;;;4.60;99.90;;;;;;6131935;23;20721;-59
2024/03/17 03:20:51;;;;;;;8.10;1.57;;;4.70;99.90;;;;;;6132147;23;20474;-59
2024/03/17 03:23:18;;;;;;;7.30;2.23;;;4.60;99.90;;;;;;6132437;23;20957;-56
2024/03/17 03:25:45;;;;;;;15.83;3.83;;;4.60;99.90;;;;;;6133221;23;20410;-59
2024/03/17 03:28:12;;;;;;;13.50;1.60;;;4.50;99.90;;;;;;6134782;23;20470;-59
2024/03/17 03:30:39;;;;;;;13.30;1.37;;;4.50;99.90;;;;;;6140643;23;20415;-60
2024/03/17 03:33:07;;;;;;;4.13;1.37;;;4.40;99.90;;;;;;6133921;23;20451;-57
2024/03/17 03:35:34;;;;;;;4.30;2.20;;;4.40;99.90;;;;;;6130905;23;20411;-60
2024/03/17 03:38:02;;;;;;;10.60;2.37;;;4.50;99.90;;;;;;6131879;23;20502;-56
2024/03/17 03:40:29;;;;;;;4.57;1.37;;;4.50;99.90;;;;;;6131265;23;20878;-58
2024/03/17 03:42:56;;;;;;;12.00;2.13;;;4.50;99.90;;;;;;6130742;23;20423;-57
2024/03/17 03:45:23;;;;;;;5.33;1.33;;;4.50;99.90;;;;;;6130802;23;20442;-58
2024/03/17 03:47:51;;;;;;;14.70;3.23;;;4.50;99.90;;;;;;6131522;23;20430;-54
2024/03/17 03:50:21;;;;;;;12.37;2.50;;;4.50;99.90;;;;;;6131872;23;20403;-54
2024/03/17 03:52:49;;;;;;;8.43;2.53;;;4.40;99.90;;;;;;6132050;23;20423;-58
2024/03/17 03:55:17;;;;;;;10.43;1.87;;;4.40;99.90;;;;;;6131415;23;20467;-58
2024/03/17 03:57:47;;;;;;;8.37;1.47;;;4.40;99.90;;;;;;6131323;23;20408;-57
2024/03/17 04:00:15;;;;;;;10.87;2.27;;;4.40;99.90;;;;;;6131097;23;20407;-56
2024/03/17 04:02:42;;;;;;;2.67;1.53;;;4.40;99.90;;;;;;6130945;23;20992;-57
2024/03/17 04:05:10;;;;;;;9.10;2.33;;;4.50;99.90;;;;;;6131262;23;20493;-56
2024/03/17 04:07:39;;;;;;;10.30;2.23;;;4.40;99.90;;;;;;6131477;23;20439;-57
2024/03/17 04:10:07;;;;;;;8.40;2.63;;;4.40;99.90;;;;;;6130741;23;20411;-53
2024/03/17 04:12:34;;;;;;;6.57;4.03;;;4.40;99.90;;;;;;6131141;23;20454;-57
2024/03/17 04:15:01;;;;;;;5.63;1.50;;;4.40;99.90;;;;;;6131222;23;20406;-59
2024/03/17 04:17:29;;;;;;;9.03;1.73;;;4.40;99.90;;;;;;6130321;23;20407;-57
2024/03/17 04:19:56;;;;;;;7.60;2.70;;;4.30;99.90;;;;;;6130293;23;20414;-60
2024/03/17 04:22:23;;;;;;;13.33;2.60;;;4.40;99.90;;;;;;6130037;23;20427;-57
2024/03/17 04:24:54;;;;;;;3.63;1.23;;;4.30;99.90;;;;;;6130897;23;20439;-58
2024/03/17 04:27:21;;;;;;;9.93;2.30;;;4.20;99.90;;;;;;6131816;23;20411;-59
2024/03/17 04:29:47;;;;;;;7.63;2.17;;;4.20;99.90;;;;;;6132005;23;20486;-58
2024/03/17 04:32:15;;;;;;;5.77;1.60;;;4.30;99.90;;;;;;6131695;23;20467;-59
2024/03/17 04:34:43;;;;;;;12.33;1.57;;;4.20;99.90;;;;;;6134134;23;20473;-59
2024/03/17 04:37:11;;;;;;;7.83;1.87;;;4.20;99.90;;;;;;6138773;23;20778;-60
2024/03/17 04:39:39;;;;;;;3.30;1.17;;;4.80;99.90;;;;;;6139389;23;20407;-58
2024/03/17 04:42:06;;;;;;;5.07;1.70;;;4.70;99.90;;;;;;6136704;23;20455;-59
2024/03/17 04:44:33;;;;;;;13.23;2.83;;;4.30;99.90;;;;;;6134528;23;20438;-57
2024/03/17 04:47:00;;;;;;;5.73;1.50;;;4.30;99.90;;;;;;6133784;23;20470;-59
2024/03/17 04:49:27;;;;;;;7.43;1.40;;;4.30;99.90;;;;;;6130938;23;20434;-57
2024/03/17 04:51:54;;;;;;;6.37;1.60;;;4.30;99.90;;;;;;6131509;23;20438;-59
2024/03/17 04:54:21;;;;;;;8.40;1.70;;;4.30;99.90;;;;;;6132051;23;20449;-59
2024/03/17 04:56:54;;;;;;;9.07;1.60;;;4.30;99.90;;;;;;6131279;23;20437;-56
2024/03/17 04:59:22;;;;;;;4.90;1.60;;;4.40;99.90;;;;;;6130784;23;20434;-57
2024/03/17 05:01:49;;;;;;;4.73;1.67;;;4.40;99.90;;;;;;6130593;23;20427;-56
2024/03/17 05:04:16;;;;;;;6.30;2.23;;;4.40;99.90;;;;;;6131319;23;20439;-55
2024/03/17 05:06:46;;;;;;;7.77;1.30;;;4.30;99.90;;;;;;6131617;23;20435;-59
2024/03/17 05:09:14;;;;;;;5.80;1.53;;;4.30;99.90;;;;;;6132174;23;20422;-59
2024/03/17 05:11:41;;;;;;;8.63;2.30;;;4.40;99.90;;;;;;6130939;23;20458;-57
2024/03/17 05:14:08;;;;;;;4.33;1.30;;;4.40;99.90;;;;;;6131807;23;20434;-60
2024/03/17 05:16:37;;;;;;;10.80;2.30;;;4.40;99.90;;;;;;6132561;23;20403;-58
2024/03/17 05:19:08;;;;;;;5.00;1.80;;;4.30;99.90;;;;;;6132818;23;20457;-58
2024/03/17 05:21:36;;;;;;;7.83;2.27;;;4.30;99.90;;;;;;6132754;23;20442;-54
2024/03/17 05:24:03;;;;;;;11.67;1.90;;;4.30;99.90;;;;;;6132376;23;20414;-57
2024/03/17 05:26:33;;;;;;;11.70;2.03;;;4.40;99.90;;;;;;6132141;23;20410;-60
2024/03/17 05:29:00;;;;;;;15.60;2.50;;;4.40;99.90;;;;;;6132000;23;20411;-60
2024/03/17 05:31:31;;;;;;;9.73;1.90;;;4.40;99.90;;;;;;6131444;23;20417;-58
2024/03/17 05:33:59;;;;;;;5.97;2.90;;;4.30;99.90;;;;;;6130825;23;20399;-59
2024/03/17 05:36:26;;;;;;;10.33;2.30;;;4.40;99.90;;;;;;6130823;23;20423;-60
2024/03/17 05:38:56;;;;;;;9.90;1.60;;;4.40;99.90;;;;;;6129711;23;20949;-56
2024/03/17 05:41:24;;;;;;;19.13;2.97;;;4.60;99.90;;;;;;6129431;23;20414;-59
2024/03/17 05:43:51;;;;;;;6.43;1.93;;;4.30;99.90;;;;;;6129181;23;21008;-58
2024/03/17 05:46:18;;;;;;;9.30;1.73;;;4.30;99.90;;;;;;6129088;23;20446;-59
2024/03/17 05:48:45;;;;;;;7.03;3.00;;;4.30;99.90;;;;;;6131195;23;20403;-53
2024/03/17 05:51:16;;;;;;;2.80;1.27;;;4.30;99.90;;;;;;6130484;23;20407;-58
2024/03/17 05:53:44;;;;;;;8.43;1.77;;;4.30;99.90;;;;;;6130293;23;20784;-57
2024/03/17 05:56:12;;;;;;;8.37;2.20;;;4.30;99.90;;;;;;6131041;23;20407;-55
2024/03/17 05:58:39;;;;;;;4.93;1.57;;;4.30;99.90;;;;;;6130758;23;20418;-58
2024/03/17 06:01:08;;;;;;;6.37;2.10;;;4.30;99.90;;;;;;6129201;23;20419;-59
2024/03/17 06:03:35;;;;;;;7.00;2.00;;;4.40;99.90;;;;;;6129565;23;20459;-59
2024/03/17 06:06:03;;;;;;;11.23;2.00;;;4.50;99.90;;;;;;6129340;23;20442;-59
2024/03/17 06:08:31;;;;;;;6.17;2.03;;;4.40;99.90;;;;;;6130607;23;20421;-58
2024/03/17 06:11:00;;;;;;;6.17;2.20;;;4.40;99.90;;;;;;6131285;23;20439;-56
2024/03/17 06:13:28;;;;;;;12.13;1.60;;;4.40;99.90;;;;;;6130763;23;20941;-57
2024/03/17 06:15:54;;;;;;;10.80;4.07;;;4.40;99.90;;;;;;6132440;23;20438;-58
2024/03/17 06:18:23;;;;;;;10.13;1.70;;;4.30;99.90;;;;;;6130835;23;20431;-56
2024/03/17 06:20:50;;;;;;;12.20;1.83;;;4.30;99.90;;;;;;6131488;23;20411;-56
2024/03/17 06:23:17;;;;;;;10.10;2.20;;;4.30;99.90;;;;;;6133739;23;20458;-54
2024/03/17 06:25:47;;;;;;;5.10;1.63;;;4.30;99.90;;;;;;6135164;23;20471;-52
2024/03/17 06:28:15;;;;;;;15.67;1.83;;;4.40;99.90;;;;;;6136274;23;20466;-53
2024/03/17 06:30:43;;;;;;;13.63;3.03;;;4.60;99.90;;;;;;6135710;23;20443;-53
2024/03/17 06:33:12;;;;;;;14.97;2.80;;;4.60;99.90;;;;;;6135754;23;20431;-56
2024/03/17 06:35:40;;;;;;;3.43;1.40;;;4.70;99.90;;;;;;6131716;23;20439;-52
2024/03/17 06:38:09;;;;;;;4.50;1.63;;;4.80;99.90;;;;;;6132639;23;20408;-54
2024/03/17 06:40:39;;;;;;;14.00;2.80;;;4.80;99.90;;;;;;6133082;23;20422;-55
2024/03/17 06:43:08;;;;;;;7.57;1.23;;;4.90;99.90;;;;;;6133354;23;20423;-52
2024/03/17 06:45:38;;;;;;;5.30;1.63;;;4.90;99.90;;;;;;6133729;23;20442;-54
2024/03/17 06:48:06;;;;;;;6.17;2.40;;;5.00;99.90;;;;;;6134661;23;20415;-49
2024/03/17 06:50:40;;;;;;;9.03;1.70;;;5.00;99.90;;;;;;6133278;23;20411;-54
2024/03/17 06:53:08;;;;;;;18.13;5.73;;;5.10;99.90;;;;;;6134083;23;20423;-50
2024/03/17 06:55:35;;;;;;;6.50;1.80;;;5.20;99.90;;;;;;6134160;23;20411;-52
2024/03/17 06:58:05;;;;;;;5.77;1.43;;;5.20;99.90;;;;;;6134637;23;20427;-54
2024/03/17 07:00:33;;;;;;;3.20;1.60;;;5.40;99.90;;;;;;6134243;23;20407;-56
2024/03/17 07:03:00;;;;;;;18.83;5.23;;;5.40;99.90;;;;;;6134226;23;20450;-53
2024/03/17 07:05:29;;;;;;;15.83;2.93;;;5.50;99.90;;;;;;6134251;23;20443;-53
2024/03/17 07:07:57;;;;;;;10.80;2.13;;;5.60;99.90;;;;;;6134212;23;20407;-55
2024/03/17 07:10:27;;;;;;;9.03;2.70;;;5.70;99.90;;;;;;6134935;23;20415;-53
2024/03/17 07:13:00;;;;;;;12.77;2.60;;;5.90;99.90;;;;;;6133567;23;20423;-52
2024/03/17 07:15:27;;;;;;;7.57;1.87;;;5.90;99.90;;;;;;6134015;23;20414;-53
2024/03/17 07:17:58;;;;;;;12.57;2.20;;;6.10;99.90;;;;;;6133856;23;20427;-51
2024/03/17 07:20:25;;;;;;;6.27;2.10;;;6.20;99.90;;;;;;6132856;23;20411;-54
2024/03/17 07:22:52;;;;;;;2.90;1.33;;;6.30;99.90;;;;;;6133295;23;20460;-52
2024/03/17 07:25:19;;;;;;;7.70;1.77;;;6.40;99.90;;;;;;6133360;23;20443;-50
2024/03/17 07:27:45;;;;;;;7.57;2.17;;;6.50;99.90;;;;;;6133705;23;20404;-56
2024/03/17 07:30:13;;;;;;;4.23;1.07;;;6.60;99.90;;;;;;6131900;23;20406;-51
2024/03/17 07:32:39;;;;;;;5.67;1.70;;;6.60;99.90;;;;;;6130437;23;20447;-51
2024/03/17 07:35:11;;;;;;;5.30;2.17;;;6.70;99.90;;;;;;6130651;23;20410;-59
2024/03/17 07:37:39;;;;;;;9.03;1.90;;;6.80;99.90;;;;;;6129895;23;20474;-61
2024/03/17 07:40:10;;;;;;;9.80;3.20;;;6.90;99.90;;;;;;6128825;23;20419;-61
2024/03/17 07:42:37;;;;;;;14.13;1.50;;;6.90;99.90;;;;;;6129940;23;20431;-62
2024/03/17 07:45:05;;;;;;;6.23;1.00;;;7.00;99.90;;;;;;6129422;23;20474;-55
2024/03/17 07:47:35;;;;;;;3.20;2.87;;;7.00;99.90;;;;;;6130192;23;20426;-59
2024/03/17 07:50:04;;;;;;;10.83;2.63;;;7.00;99.90;;;;;;6131595;23;20415;-59
2024/03/17 07:52:32;;;;;;;9.57;2.00;;;7.10;99.90;;;;;;6132170;23;20430;-58
2024/03/17 07:54:59;;;;;;;7.70;1.47;;;7.20;99.90;;;;;;6131320;23;20407;-58
2024/03/17 07:57:26;;;;;;;6.13;1.20;;;7.10;99.90;;;;;;6131278;23;20403;-59
2024/03/17 07:59:55;;;;;;;1.73;1.07;;;7.20;99.90;;;;;;6130088;23;20411;-58
2024/03/17 08:02:22;;;;;;;4.23;1.30;;;7.20;99.90;;;;;;6131278;23;20929;-59
2024/03/17 08:04:52;;;;;;;5.30;1.20;;;7.30;99.90;;;;;;6130173;23;20466;-61
2024/03/17 08:07:21;;;;;;;3.67;2.07;;;7.30;99.90;;;;;;6130764;23;20410;-59
2024/03/17 08:09:49;;;;;;;5.10;1.60;;;7.30;99.90;;;;;;6129436;23;20411;-61
2024/03/17 08:12:29;;;;;;;8.40;2.50;;;7.30;99.90;;;;;;6128533;23;20501;-62
2024/03/17 08:15:00;;;;;;;7.20;1.77;;;7.40;99.90;;;;;;6129199;23;20427;-61
2024/03/17 08:17:27;;;;;;;2.30;1.37;;;7.50;99.90;;;;;;6130584;23;20422;-59
2024/03/17 08:19:57;;;;;;;9.57;1.80;;;7.70;99.90;;;;;;6130846;23;20403;-57
2024/03/17 08:22:24;;;;;;;7.33;3.43;;;7.80;99.90;;;;;;6130803;23;20438;-59
2024/03/17 08:24:53;;;;;;;7.73;1.90;;;7.80;99.90;;;;;;6129762;23;20410;-57
2024/03/17 08:27:20;;;;;;;5.83;1.50;;;7.70;99.90;;;;;;6130292;23;20499;-59
2024/03/17 08:29:47;;;;;;;12.37;2.37;;;7.70;99.90;;;;;;6131012;23;20411;-59
2024/03/17 08:32:15;;;;;;;3.20;1.37;;;7.70;99.90;;;;;;6129733;23;20792;-59
2024/03/17 08:34:42;;;;;;;11.13;1.70;;;7.80;99.90;;;;;;6129897;23;20395;-60
2024/03/17 08:37:09;;;;;;;5.10;1.57;;;8.00;99.90;;;;;;6129784;23;20399;-60
2024/03/17 08:39:36;;;;;;;3.17;1.30;;;8.50;99.90;;;;;;6130849;23;20727;-59
2024/03/17 08:42:04;;;;;;;4.10;1.30;;;9.40;99.90;;;;;;6128636;23;20427;-59
2024/03/17 08:44:31;;;;;;;6.70;1.50;;;10.50;99.90;;;;;;6129353;23;20921;-58
2024/03/17 08:47:01;;;;;;;8.03;2.80;;;11.60;99.90;;;;;;6129197;23;20446;-59
2024/03/17 08:49:28;;;;;;;3.37;1.60;;;11.90;99.90;;;;;;6130092;23;20407;-58
2024/03/17 08:51:55;;;;;;;8.43;2.10;;;12.30;99.90;;;;;;6130976;23;20450;-59
2024/03/17 08:54:22;;;;;;;5.80;1.77;;;12.20;99.90;;;;;;6130427;23;20411;-58
2024/03/17 08:56:49;;;;;;;2.47;1.53;;;11.70;99.90;;;;;;6132762;23;20909;-58
2024/03/17 08:59:17;;;;;;;2.83;1.33;;;11.80;99.90;;;;;;6133378;23;20407;-59
2024/03/17 09:01:44;;;;;;;10.47;2.10;;;11.80;99.90;;;;;;6131674;23;20993;-59
2024/03/17 09:04:12;;;;;;;2.37;1.23;;;12.10;99.90;;;;;;6132560;23;20403;-60
2024/03/17 09:06:40;;;;;;;8.00;3.10;;;12.00;99.90;;;;;;6131023;23;20439;-59
2024/03/17 09:09:08;;;;;;;6.93;1.33;;;12.10;99.90;;;;;;6131655;23;20419;-59
2024/03/17 09:11:34;;;;;;;7.77;1.77;;;11.70;99.90;;;;;;6131594;23;20415;-61
2024/03/17 09:14:02;;;;;;;9.33;2.00;;;11.30;99.90;;;;;;6131413;23;20411;-60
2024/03/17 09:16:31;;;;;;;2.53;1.77;;;11.00;99.90;;;;;;6132471;23;20407;-55
2024/03/17 09:18:58;;;;;;;5.30;1.13;;;10.60;99.90;;;;;;6132284;23;20499;-58
2024/03/17 09:21:25;;;;;;;3.60;1.67;;;10.00;99.90;;;;;;6130803;23;20473;-59
2024/03/17 09:23:52;;;;;;;4.63;1.30;;;9.80;99.90;;;;;;6130469;23;20898;-57
2024/03/17 09:26:19;;;;;;;3.70;1.40;;;9.90;99.90;;;;;;6127880;23;20619;-58
2024/03/17 09:28:46;;;;;;;5.07;1.50;;;10.30;99.90;;;;;;6129135;23;20785;-56
2024/03/17 09:31:13;;;;;;;4.30;1.73;;;10.80;99.90;;;;;;6128892;23;20427;-59
2024/03/17 09:33:41;;;;;;;6.80;1.53;;;11.40;99.90;;;;;;6128701;23;20820;-55
2024/03/17 09:36:10;;;;;;;3.87;1.23;;;11.60;99.90;;;;;;6129945;23;20431;-59
2024/03/17 09:38:38;;;;;;;11.80;1.70;;;11.60;99.90;;;;;;6130185;23;20415;-58
2024/03/17 09:41:06;;;;;;;4.40;1.43;;;11.50;99.90;;;;;;6130433;23;20418;-58
2024/03/17 09:43:35;;;;;;;6.17;1.60;;;11.30;99.50;;;;;;6131004;23;20438;-58
2024/03/17 09:46:03;;;;;;;4.97;2.33;;;10.90;99.50;;;;;;6132599;23;20547;-58
2024/03/17 09:48:31;;;;;;;8.50;1.97;;;10.60;99.90;;;;;;6131244;23;20442;-59
2024/03/17 09:51:03;;;;;;;2.60;1.20;;;10.80;99.90;;;;;;6131400;23;20913;-60
2024/03/17 09:53:31;;;;;;;4.33;1.53;;;11.90;99.90;;;;;;6131197;23;20922;-57
2024/03/17 09:56:00;;;;;;;11.30;1.83;;;13.40;98.50;;;;;;6130355;23;20410;-59
2024/03/17 09:58:27;;;;;;;4.80;1.37;;;14.90;95.00;;;;;;6131541;23;20492;-59
2024/03/17 10:00:54;;;;;;;4.10;1.93;;;15.70;90.10;;;;;;6129799;23;20809;-58
2024/03/17 10:03:41;;;;;;;4.17;1.33;;;16.20;82.20;;;;;;6131710;23;20423;-60
2024/03/17 10:06:11;;;;;;;2.10;1.23;;;16.90;78.70;;;;;;6130976;23;20833;-56
2024/03/17 10:08:46;;;;;;;4.97;1.30;;;17.40;72.90;;;;;;6131404;23;20466;-60
2024/03/17 10:11:15;;;;;;;5.03;1.43;;;17.80;69.60;;;;;;6131889;23;20382;-60
2024/03/17 10:13:42;;;;;;;4.33;1.43;;;18.10;65.70;;;;;;6129375;23;20449;-59
2024/03/17 10:16:24;;;;;;;5.50;1.50;;;18.60;68.00;;;;;;6130584;23;20434;-57
2024/03/17 10:18:51;;;;;;;7.93;2.53;;;19.30;62.00;;;;;;6132076;23;20690;-58
2024/03/17 10:21:29;;;;;;;2.87;1.73;;;19.20;59.90;;;;;;6133363;23;20462;-58
2024/03/17 10:24:09;;;;;;;3.87;1.37;;;18.80;58.30;;;;;;6133477;23;20376;-59
2024/03/17 10:26:43;;;;;;;8.53;1.57;;;17.60;57.70;;;;;;6133869;23;20442;-58
2024/03/17 10:29:25;;;;;;;8.63;1.73;;;16.10;59.20;;;;;;6131361;23;20411;-58
2024/03/17 10:31:53;;;;;;;4.63;1.50;;;15.00;62.50;;;;;;6129479;23;20431;-56
2024/03/17 10:34:24;;;;;;;4.27;1.30;;;14.40;66.80;;;;;;6133065;23;20726;-58
2024/03/17 10:36:52;;;;;;;3.73;1.90;;;13.90;67.60;;;;;;6129648;23;20406;-57
2024/03/17 10:39:30;;;;;;;3.87;1.50;;;13.40;69.30;;;;;;6129194;23;20408;-57
2024/03/17 10:42:00;;;;;;;2.07;1.27;;;13.00;72.50;;;;;;6129035;23;20928;-58
2024/03/17 10:44:31;;;;;;;3.97;1.70;;;13.60;70.90;;;;;;6132312;23;20408;-60
2024/03/17 10:47:00;;;;;;;4.00;1.53;;;14.30;68.20;;;;;;6130698;23;20455;-59
2024/03/17 10:49:32;;;;;;;2.67;1.10;;;14.90;66.40;;;;;;6133158;23;20399;-61
2024/03/17 10:52:04;;;;;;;6.07;1.60;;;14.70;66.90;;;;;;6132987;23;20427;-57
2024/03/17 10:54:31;;;;;;;4.03;1.53;;;14.50;66.50;;;;;;6130831;23;20391;-57
2024/03/17 10:57:08;;;;;;;4.33;1.43;;;13.60;67.40;;;;;;6132435;23;20737;-59
2024/03/17 10:59:40;;;;;;;5.73;1.30;;;12.90;69.80;;;;;;6133712;23;20387;-58
2024/03/17 11:02:23;;;;;;;4.33;1.40;;;12.30;71.90;;;;;;6131329;23;20497;-58
2024/03/17 11:04:50;;;;;;;6.73;1.53;;;11.60;73.40;;;;;;6132765;23;20398;-58
2024/03/17 11:07:20;;;;;;;2.63;1.00;;;11.50;77.10;;;;;;6132650;23;20442;-57
2024/03/17 11:09:48;;;;;;;4.43;1.10;;;12.10;80.50;;;;;;6131941;23;20442;-61
2024/03/17 11:12:45;;;;;;;7.90;2.53;;;12.50;76.60;;;;;;6131167;23;20515;-62
2024/03/17 11:15:39;;;;;;;3.10;1.27;;;12.70;74.50;;;;;;6131452;23;20408;-59
2024/03/17 11:18:38;;;;;;;4.47;2.07;;;13.00;75.10;;;;;;6133730;23;20407;-61
2024/03/17 11:21:10;;;;;;;3.80;1.00;;;13.10;74.40;;;;;;6133100;23;20431;-60
2024/03/17 11:23:39;;;;;;;3.33;1.03;;;13.00;73.60;;;;;;6133771;23;20419;-62
2024/03/17 11:26:06;;;;;;;4.33;1.67;;;12.60;74.60;;;;;;6133380;23;20506;-60
2024/03/17 11:28:51;;;;;;;4.83;2.10;;;12.30;73.80;;;;;;6133499;23;20415;-59
2024/03/17 11:31:52;;;;;;;3.07;1.40;;;12.20;73.80;;;;;;6133925;23;20474;-60
2024/03/17 11:34:32;;;;;;;1.13;0.83;;;12.30;76.80;;;;;;6046954;23;20414;-59
2024/03/17 11:37:00;;;;;;;2.80;1.43;;;12.40;74.00;;;;;;6124919;23;20403;-60
2024/03/17 11:39:55;;;;;;;4.53;1.30;;;12.00;72.90;;;;;;6134303;23;20399;-60
2024/03/17 11:42:24;;;;;;;13.47;1.50;;;11.80;74.60;;;;;;6131277;23;20453;-61
2024/03/17 11:44:58;;;;;;;2.53;1.30;;;11.90;76.10;;;;;;6132166;23;20400;-58
2024/03/17 11:47:34;;;;;;;5.00;1.40;;;11.90;77.50;;;;;;6133230;23;20446;-61
2024/03/17 11:50:02;;;;;;;5.87;1.60;;;11.90;77.70;;;;;;6131638;23;20394;-60
2024/03/17 11:52:29;;;;;;;2.47;0.87;;;11.90;78.30;;;;;;6132133;23;20422;-61
2024/03/17 11:54:57;;;;;;;2.67;1.57;;;11.70;76.10;;;;;;6131883;23;20411;-60
2024/03/17 11:57:26;;;;;;;5.30;1.20;;;11.70;78.00;;;;;;6130548;23;20413;-60
2024/03/17 11:59:53;;;;;;;2.90;1.10;;;11.70;76.50;;;;;;6129375;23;20422;-59
2024/03/17 12:02:22;;;;;;;7.40;1.27;;;11.60;76.70;;;;;;6129390;23;20436;-58
2024/03/17 12:04:49;;;;;;;2.80;1.30;;;11.50;78.40;;;;;;6130022;23;20906;-62
2024/03/17 12:07:20;;;;;;;4.60;1.50;;;11.40;78.60;;;;;;6130203;23;20453;-58
2024/03/17 12:09:47;;;;;;;12.13;1.50;;;11.40;79.30;;;;;;6131760;23;20858;-60
2024/03/17 12:12:20;;;;;;;3.80;1.93;;;11.70;79.50;;;;;;6130558;23;20461;-61
2024/03/17 12:14:47;;;;;;;4.20;1.47;;;11.80;76.10;;;;;;6130420;23;20391;-58
2024/03/17 12:17:16;;;;;;;5.30;1.30;;;11.70;74.70;;;;;;6129423;23;20525;-61
2024/03/17 12:19:45;;;;;;;4.17;0.93;;;11.60;72.30;;;;;;6128301;23;20434;-60
2024/03/17 12:22:22;;;;;;;2.43;1.30;;;11.40;72.00;;;;;;6126145;23;20952;-58
2024/03/17 12:24:49;;;;;;;2.40;1.13;;;11.50;74.20;;;;;;6129026;23;20872;-61
2024/03/17 12:27:22;;;;;;;3.73;1.57;;;11.40;74.30;;;;;;6128617;23;20477;-59
2024/03/17 12:29:49;;;;;;;3.73;1.20;;;11.50;75.00;;;;;;6128323;23;20395;-60
2024/03/17 12:32:17;;;;;;;2.93;0.90;;;11.70;73.50;;;;;;6129443;23;20513;-56
2024/03/17 12:34:44;;;;;;;4.27;1.30;;;11.50;73.30;;;;;;6129851;23;20482;-60
2024/03/17 12:37:19;;;;;;;4.33;1.23;;;11.40;73.60;;;;;;6130200;23;20422;-56
2024/03/17 12:39:46;;;;;;;1.73;1.10;;;11.30;74.70;;;;;;6127699;23;20409;-59
2024/03/17 12:42:16;;;;;;;4.83;1.20;;;11.40;75.70;;;;;;6128074;23;20427;-58
2024/03/17 12:44:50;;;;;;;3.77;1.00;;;11.50;74.30;;;;;;6129872;23;20422;-58
2024/03/17 12:47:18;;;;;;;3.33;1.27;;;11.70;73.80;;;;;;6129945;23;20427;-60
2024/03/17 12:49:46;;;;;;;2.80;1.13;;;11.80;73.20;;;;;;6128910;23;20415;-59
2024/03/17 12:52:19;;;;;;;3.10;1.30;;;11.90;72.60;;;;;;6132671;23;20423;-60
2024/03/17 13:00:30;;;;;;;2.13;1.20;;;11.70;72.20;;;;;;6133726;23;20399;-58
2024/03/17 13:00:34;;;;;;;4.20;1.03;;;11.60;73.30;;;;;;6131440;23;20434;-61
2024/03/17 13:03:02;;;;;;;3.20;1.70;;;11.70;72.40;;;;;;6130968;23;20434;-60
2024/03/17 13:05:29;;;;;;;2.23;1.20;;;11.80;72.60;;;;;;6131721;23;20407;-61